createdAt,value
2022-10-13T06:15:17.344Z,8.33
2022-10-13T06:25:17.122Z,8.63
2022-10-13T06:35:17.208Z,8.97
2022-10-13T06:45:17.235Z,9.16
2022-10-13T06:55:17.043Z,9.31
2022-10-13T07:05:17.254Z,9.42
2022-10-13T07:15:17.315Z,9.65
2022-10-13T07:25:17.456Z,9.88
2022-10-13T07:35:17.333Z,10.03
2022-10-13T07:45:17.295Z,10.20
2022-10-13T07:55:17.377Z,11.08
2022-10-13T08:05:17.157Z,11.97
2022-10-13T08:15:17.405Z,12.27
2022-10-13T08:25:17.344Z,12.57
2022-10-13T08:35:17.432Z,12.67
2022-10-13T08:45:41.679Z,13.66
2022-10-13T08:55:17.424Z,13.46
2022-10-13T09:05:17.623Z,13.55
2022-10-13T09:15:17.691Z,13.62
2022-10-13T09:25:17.614Z,14.20
2022-10-13T09:35:17.484Z,15.10
2022-10-13T09:45:17.563Z,13.85
2022-10-13T09:55:17.386Z,14.06
2022-10-13T10:05:17.394Z,14.30
2022-10-13T10:15:17.577Z,15.07
2022-10-13T10:25:17.654Z,15.02
2022-10-13T10:35:17.494Z,15.56
2022-10-13T10:45:17.704Z,15.40
2022-10-13T10:55:17.786Z,15.54
2022-10-13T11:05:17.746Z,15.70
2022-10-13T11:15:17.762Z,15.33
2022-10-13T11:25:17.833Z,15.77
2022-10-13T11:35:17.709Z,16.29
2022-10-13T11:45:17.716Z,16.39
2022-10-13T11:55:17.892Z,16.78
2022-10-13T12:05:18.084Z,16.68
2022-10-13T12:15:17.797Z,17.15
2022-10-13T12:25:17.759Z,17.21
2022-10-13T12:35:17.936Z,16.76
2022-10-13T12:45:17.997Z,16.51
2022-10-13T12:55:18.251Z,16.47
2022-10-13T13:05:18.143Z,16.63
2022-10-13T13:15:18.112Z,17.03
2022-10-13T13:25:18.137Z,16.88
2022-10-13T13:35:18.064Z,16.74
2022-10-13T13:45:18.200Z,16.75
2022-10-13T13:55:18.147Z,16.59
2022-10-13T14:05:18.223Z,16.61
2022-10-13T14:15:18.292Z,16.72
2022-10-13T14:25:18.091Z,16.54
2022-10-13T14:35:18.186Z,16.43
2022-10-13T14:45:18.212Z,16.39
2022-10-13T14:55:18.110Z,16.32
2022-10-13T15:05:18.273Z,16.23
2022-10-13T15:15:18.444Z,16.10
2022-10-13T15:25:18.425Z,16.02
2022-10-13T15:35:18.534Z,15.94
2022-10-13T15:45:18.463Z,15.78
2022-10-13T15:55:18.423Z,15.58
2022-10-13T16:05:18.441Z,15.28
2022-10-13T16:15:18.479Z,14.96
2022-10-13T16:25:18.524Z,14.68
2022-10-13T16:35:18.492Z,14.48
2022-10-13T16:45:19.760Z,14.24
2022-10-13T16:55:18.565Z,14.01
2022-10-13T17:05:18.433Z,13.84
2022-10-13T17:15:18.447Z,13.72
2022-10-13T17:25:18.523Z,13.80
2022-10-13T17:35:18.430Z,13.69
2022-10-13T17:45:18.534Z,13.44
2022-10-13T17:55:18.470Z,13.14
2022-10-13T18:05:18.472Z,12.96
2022-10-13T18:15:18.519Z,12.75
2022-10-13T18:25:18.479Z,12.43
2022-10-13T18:35:18.707Z,12.27
2022-10-13T18:45:18.743Z,12.52
2022-10-13T18:55:18.822Z,12.75
2022-10-13T19:05:19.036Z,12.79
2022-10-13T19:15:19.203Z,12.71
